This is the latest recevied weather packets stored in our database for station/object WI0K. If no packets are shown the sender has not sent any weather packets the latest 10 day(s).
| Time | Temp. | Humidity | Pressure | Rain* | Wind** | Luminosity | Snow |
|---|---|---|---|---|---|---|---|
| 1788136699 | 22.22° C | 51% | 1019.8 hPa | 0 mm | - | 69 W/m² | - |
| 1788136399 | 22.22° C | 52% | 1019.8 hPa | 0 mm | - | 76 W/m² | - |
| 1788136098 | 22.22° C | 51% | 1019.8 hPa | 0 mm | - | 86 W/m² | - |
| 1788135797 | 22.22° C | 52% | 1019.8 hPa | 0 mm | - | 96 W/m² | - |
| 1788135497 | 21.67° C | 52% | 1019.8 hPa | 0 mm | - | 110 W/m² | - |
| 1788135196 | 21.67° C | 54% | 1020.1 hPa | 0 mm | - | 135 W/m² | - |
| 1788134896 | 21.11° C | 55% | 1020.1 hPa | 0 mm | - | 152 W/m² | - |
| 1788134595 | 21.11° C | 57% | 1020.2 hPa | 0 mm | - | 162 W/m² | - |
| 1788134294 | 21.11° C | 56% | 1020.2 hPa | 0 mm | - | 158 W/m² | - |
| 1788133993 | 21.11° C | 55% | 1020.2 hPa | 0 mm | - | 146 W/m² | - |
| 1788133692 | 21.67° C | 51% | 1020.2 hPa | 0 mm | - | 147 W/m² | - |
| 1788133392 | 21.11° C | 51% | 1020.3 hPa | 0 mm | - | 120 W/m² | - |
| 1788133091 | 21.11° C | 51% | 1020.2 hPa | 0 mm | - | 113 W/m² | - |
| 1788132790 | 21.11° C | 50% | 1020.1 hPa | 0 mm | - | 63 W/m² | - |
| 1788132489 | 21.11° C | 51% | 1020.3 hPa | 0 mm | - | 49 W/m² | - |
| 1788132188 | 21.11° C | 53% | 1020.2 hPa | 0 mm | - | 62 W/m² | - |
| 1788131887 | 21.11° C | 53% | 1020.1 hPa | 0 mm | - | 105 W/m² | - |
| 1788131587 | 21.11° C | 54% | 1020.2 hPa | 0 mm | - | 105 W/m² | - |
| 1788131286 | 21.11° C | 54% | 1020.1 hPa | 0 mm | - | 85 W/m² | - |
| 1788130985 | 21.11° C | 56% | 1020.2 hPa | 0 mm | - | 75 W/m² | - |
| 1788130684 | 21.11° C | 55% | 1020.2 hPa | 0 mm | - | 87 W/m² | - |
| 1788130384 | 20.56° C | 57% | 1020.2 hPa | 0 mm | - | 123 W/m² | - |
| 1788130083 | 20.56° C | 56% | 1020.3 hPa | 0 mm | - | 127 W/m² | - |
| 1788129782 | 20° C | 59% | 1020.4 hPa | 0 mm | - | 193 W/m² | - |
| 1788129482 | 20° C | 58% | 1020.5 hPa | 0 mm | - | 208 W/m² | - |
* Rain latest hour (hover to see other rain measurements)
** Current wind speed in m/s (hover to see current wind gust speed)